createdAt,value
2022-09-07T00:00:02.399Z,1009.21
2022-09-07T00:00:36.439Z,1009.21
2022-09-07T00:01:07.400Z,1009.31
2022-09-07T00:01:38.670Z,1009.31
2022-09-07T00:02:10.421Z,1009.41
2022-09-07T00:02:42.584Z,1009.41
2022-09-07T00:03:14.984Z,1009.41
2022-09-07T00:03:40.115Z,1009.11
2022-09-07T00:04:04.357Z,1009.11
2022-09-07T00:04:34.521Z,1009.11
2022-09-07T00:05:07.295Z,1009.31
2022-09-07T00:05:40.158Z,1009.31
2022-09-07T00:06:10.464Z,1009.11
2022-09-07T00:06:41.405Z,1009.21
2022-09-07T00:06:58.422Z,1009.21
2022-09-07T00:07:31.349Z,1009.21
2022-09-07T00:08:03.861Z,1009.41
2022-09-07T00:08:34.438Z,1009.41
2022-09-07T00:09:06.489Z,1009.31
2022-09-07T00:09:38.344Z,1009.31
2022-09-07T00:10:11.120Z,1009.11
2022-09-07T00:10:40.086Z,1009.04
2022-09-07T00:10:58.460Z,1009.04
2022-09-07T00:11:30.482Z,1009.04
2022-09-07T00:11:48.431Z,1009.11
2022-09-07T00:12:18.403Z,1009.11
2022-09-07T00:12:40.304Z,1009.21
2022-09-07T00:13:06.576Z,1009.21
2022-09-07T00:13:38.714Z,1009.21
2022-09-07T00:14:10.324Z,1009.21
2022-09-07T00:14:40.184Z,1009.21
2022-09-07T00:14:58.445Z,1009.21
2022-09-07T00:15:31.425Z,1009.21
2022-09-07T00:16:03.912Z,1009.31
2022-09-07T00:16:34.537Z,1009.31
2022-09-07T00:17:08.155Z,1009.21
2022-09-07T00:17:38.437Z,1009.21
2022-09-07T00:18:10.479Z,1009.21
2022-09-07T00:18:45.809Z,1009.21
2022-09-07T00:19:14.694Z,1009.21
2022-09-07T00:19:40.171Z,1009.41
2022-09-07T00:20:02.455Z,1009.41
2022-09-07T00:20:35.498Z,1009.41
2022-09-07T00:21:06.493Z,1009.21
2022-09-07T00:21:38.482Z,1009.21
2022-09-07T00:22:11.528Z,1009.62
2022-09-07T00:22:41.118Z,1009.41
2022-09-07T00:22:58.487Z,1009.41
2022-09-07T00:23:30.565Z,1009.41
2022-09-07T00:23:48.608Z,1009.41
2022-09-07T00:24:21.440Z,1009.41
2022-09-07T00:24:40.167Z,1009.31
2022-09-07T00:25:06.351Z,1009.31
2022-09-07T00:25:38.452Z,1009.31
2022-09-07T00:26:10.705Z,1009.21
2022-09-07T00:26:40.179Z,1009.41
2022-09-07T00:26:58.400Z,1009.41
2022-09-07T00:27:31.858Z,1009.41
2022-09-07T00:27:47.775Z,1009.41
2022-09-07T00:28:18.380Z,1009.41
2022-09-07T00:28:40.596Z,1009.31
2022-09-07T00:29:06.401Z,1009.31
2022-09-07T00:29:40.739Z,1009.31
2022-09-07T00:30:11.480Z,1009.41
2022-09-07T00:30:40.604Z,1009.41
2022-09-07T00:30:58.573Z,1009.41
2022-09-07T00:31:31.342Z,1009.41
2022-09-07T00:31:49.726Z,1009.41
2022-09-07T00:32:18.385Z,1009.41
2022-09-07T00:32:40.143Z,1009.21
2022-09-07T00:33:06.314Z,1009.21
2022-09-07T00:33:38.505Z,1009.21
2022-09-07T00:34:10.488Z,1009.41
2022-09-07T00:34:40.319Z,1009.31
2022-09-07T00:34:58.421Z,1009.31
2022-09-07T00:35:30.422Z,1009.31
2022-09-07T00:35:47.497Z,1009.31
2022-09-07T00:36:18.262Z,1009.31
2022-09-07T00:36:41.315Z,1009.31
2022-09-07T00:37:08.376Z,1009.31
2022-09-07T00:37:38.346Z,1009.31
2022-09-07T00:38:11.820Z,1009.31
2022-09-07T00:38:40.180Z,1009.31
2022-09-07T00:38:58.577Z,1009.31
2022-09-07T00:39:31.202Z,1009.31
2022-09-07T00:40:03.167Z,1009.41
2022-09-07T00:40:34.522Z,1009.41
2022-09-07T00:41:08.217Z,1009.31
2022-09-07T00:41:38.332Z,1009.31
2022-09-07T00:42:10.416Z,1009.31
2022-09-07T00:42:39.974Z,1009.41
2022-09-07T00:42:58.236Z,1009.41
2022-09-07T00:43:30.257Z,1009.41
2022-09-07T00:43:48.694Z,1009.41
2022-09-07T00:44:18.328Z,1009.41
2022-09-07T00:44:40.202Z,1009.51
2022-09-07T00:45:07.982Z,1009.51
2022-09-07T00:45:38.377Z,1009.51
2022-09-07T00:46:11.522Z,1009.41
2022-09-07T00:46:41.254Z,1009.21
2022-09-07T00:46:58.669Z,1009.21
2022-09-07T00:47:30.484Z,1009.21
2022-09-07T00:47:48.286Z,1009.41
2022-09-07T00:48:18.355Z,1009.41
2022-09-07T00:48:40.164Z,1009.31
2022-09-07T00:49:06.362Z,1009.31
2022-09-07T00:49:39.336Z,1009.31
2022-09-07T00:50:11.138Z,1009.41
2022-09-07T00:50:40.139Z,1009.31
2022-09-07T00:50:58.436Z,1009.31
2022-09-07T00:51:30.407Z,1009.31
2022-09-07T00:51:47.472Z,1009.41
2022-09-07T00:52:18.559Z,1009.41
2022-09-07T00:52:40.293Z,1009.21
2022-09-07T00:53:07.338Z,1009.21
2022-09-07T00:53:38.388Z,1009.21
2022-09-07T00:54:10.538Z,1009.11
2022-09-07T00:54:40.809Z,1009.21
2022-09-07T00:54:58.294Z,1009.21
2022-09-07T00:55:30.439Z,1009.21
2022-09-07T00:55:48.268Z,1009.04
2022-09-07T00:56:18.360Z,1009.04
2022-09-07T00:56:40.619Z,1009.21
2022-09-07T00:57:06.697Z,1009.21
2022-09-07T00:57:38.484Z,1009.21
2022-09-07T00:58:10.408Z,1009.11
2022-09-07T00:58:40.100Z,1009.21
2022-09-07T00:58:58.414Z,1009.21
2022-09-07T00:59:30.584Z,1009.21
2022-09-07T00:59:49.196Z,1009.21
2022-09-07T01:00:18.296Z,1009.21
2022-09-07T01:00:41.425Z,1009.21
2022-09-07T01:01:06.302Z,1009.21
2022-09-07T01:01:41.605Z,1009.21
2022-09-07T01:02:11.422Z,1009.04
2022-09-07T01:02:40.964Z,1009.11
2022-09-07T01:02:58.498Z,1009.11
2022-09-07T01:03:30.485Z,1009.11
2022-09-07T01:03:47.544Z,1009.04
2022-09-07T01:04:18.318Z,1009.04
2022-09-07T01:04:40.196Z,1009.04
2022-09-07T01:05:09.525Z,1009.04
2022-09-07T01:05:38.446Z,1009.04
2022-09-07T01:06:10.534Z,1008.94
2022-09-07T01:06:41.005Z,1008.94
2022-09-07T01:06:58.654Z,1008.94
2022-09-07T01:07:30.444Z,1008.94
2022-09-07T01:07:47.658Z,1009.04
2022-09-07T01:08:18.434Z,1009.04
2022-09-07T01:08:40.122Z,1008.94
2022-09-07T01:09:06.430Z,1008.94
2022-09-07T01:09:38.389Z,1008.94
2022-09-07T01:10:10.539Z,1008.84
2022-09-07T01:10:40.263Z,1008.94
2022-09-07T01:10:58.383Z,1008.94
2022-09-07T01:11:30.408Z,1008.94
2022-09-07T01:11:47.899Z,1009.04
2022-09-07T01:12:20.055Z,1009.04
2022-09-07T01:12:40.774Z,1009.04
2022-09-07T01:13:06.655Z,1009.04
2022-09-07T01:13:38.275Z,1009.04
2022-09-07T01:14:10.368Z,1009.11
2022-09-07T01:14:40.810Z,1009.21
2022-09-07T01:14:58.363Z,1009.21
2022-09-07T01:15:30.594Z,1009.21
2022-09-07T01:15:47.551Z,1009.11
2022-09-07T01:16:34.600Z,1009.11
2022-09-07T01:17:06.331Z,1009.11
2022-09-07T01:17:38.442Z,1009.11
2022-09-07T01:18:22.574Z,1009.31
2022-09-07T01:18:40.158Z,1009.11
2022-09-07T01:19:14.759Z,1009.11
2022-09-07T01:19:40.281Z,1008.94
2022-09-07T01:20:02.308Z,1008.94
2022-09-07T01:20:34.495Z,1008.94
2022-09-07T01:21:06.358Z,1009.31
2022-09-07T01:21:39.431Z,1009.31
2022-09-07T01:22:10.585Z,1009.04
2022-09-07T01:22:40.172Z,1008.84
2022-09-07T01:22:58.378Z,1008.84
2022-09-07T01:23:30.401Z,1008.84
2022-09-07T01:23:47.478Z,1008.84
2022-09-07T01:24:18.300Z,1008.84
2022-09-07T01:24:40.178Z,1008.63
2022-09-07T01:25:06.347Z,1008.63
2022-09-07T01:25:38.363Z,1008.63
2022-09-07T01:26:11.217Z,1008.94
2022-09-07T01:26:41.163Z,1008.63
2022-09-07T01:26:58.334Z,1008.63
2022-09-07T01:27:30.985Z,1008.63
2022-09-07T01:27:48.000Z,1008.74
2022-09-07T01:28:18.379Z,1008.74
2022-09-07T01:28:40.133Z,1008.94
2022-09-07T01:29:06.281Z,1008.94
2022-09-07T01:29:38.312Z,1008.94
2022-09-07T01:30:10.686Z,1008.63
2022-09-07T01:30:40.135Z,1008.94
2022-09-07T01:30:58.418Z,1008.94
2022-09-07T01:31:30.465Z,1008.94
2022-09-07T01:31:47.510Z,1008.84
2022-09-07T01:32:34.828Z,1008.84
2022-09-07T01:33:06.388Z,1009.04
2022-09-07T01:33:38.309Z,1009.04
2022-09-07T01:34:10.339Z,1008.84
2022-09-07T01:34:40.917Z,1008.84
2022-09-07T01:34:59.539Z,1008.84
2022-09-07T01:35:36.304Z,1008.84
2022-09-07T01:35:47.646Z,1008.74
2022-09-07T01:36:18.447Z,1008.74
2022-09-07T01:36:43.679Z,1008.53
2022-09-07T01:37:06.323Z,1008.53
2022-09-07T01:37:39.109Z,1008.53
2022-09-07T01:38:10.295Z,1008.63
2022-09-07T01:38:41.734Z,1008.63
2022-09-07T01:38:59.336Z,1008.63
2022-09-07T01:39:30.600Z,1008.63
2022-09-07T01:39:48.868Z,1008.74
2022-09-07T01:40:18.567Z,1008.74
2022-09-07T01:40:41.928Z,1008.43
2022-09-07T01:41:06.937Z,1008.43
2022-09-07T01:41:38.250Z,1008.43
2022-09-07T01:42:10.465Z,1008.84
2022-09-07T01:42:40.775Z,1008.84
2022-09-07T01:42:58.387Z,1008.84
2022-09-07T01:43:32.321Z,1008.84
2022-09-07T01:44:02.421Z,1008.94
2022-09-07T01:44:35.789Z,1008.94
2022-09-07T01:45:07.518Z,1009.04
2022-09-07T01:45:38.301Z,1009.04
2022-09-07T01:46:10.318Z,1009.11
2022-09-07T01:46:41.301Z,1009.41
2022-09-07T01:46:58.785Z,1009.41
2022-09-07T01:47:30.352Z,1009.41
2022-09-07T01:47:48.026Z,1009.41
2022-09-07T01:48:18.277Z,1009.41
2022-09-07T01:48:40.128Z,1009.41
2022-09-07T01:49:06.401Z,1009.41
2022-09-07T01:49:38.412Z,1009.41
2022-09-07T01:50:10.261Z,1009.41
2022-09-07T01:50:41.409Z,1009.62
2022-09-07T01:51:14.837Z,1009.62
2022-09-07T01:51:40.202Z,1009.62
2022-09-07T01:52:02.294Z,1009.62
2022-09-07T01:52:34.578Z,1009.62
2022-09-07T01:53:07.134Z,1009.62
2022-09-07T01:53:39.955Z,1009.62
2022-09-07T01:54:10.316Z,1009.72
2022-09-07T01:54:40.217Z,1009.62
2022-09-07T01:54:58.368Z,1009.62
2022-09-07T01:55:30.323Z,1009.62
2022-09-07T01:55:48.177Z,1009.72
2022-09-07T01:56:18.217Z,1009.72
2022-09-07T01:56:40.158Z,1009.92
2022-09-07T01:57:06.706Z,1009.92
2022-09-07T01:57:39.618Z,1009.92
2022-09-07T01:58:10.235Z,1010.12
2022-09-07T01:58:40.188Z,1009.92
2022-09-07T01:58:58.313Z,1009.92
2022-09-07T01:59:30.363Z,1009.92
2022-09-07T01:59:48.421Z,1009.72
2022-09-07T02:00:18.295Z,1009.72
2022-09-07T02:00:40.120Z,1009.82
2022-09-07T02:01:06.310Z,1009.82
2022-09-07T02:01:38.412Z,1009.82
2022-09-07T02:02:10.373Z,1009.92
2022-09-07T02:02:41.092Z,1010.02
2022-09-07T02:02:59.074Z,1010.02
2022-09-07T02:03:30.363Z,1010.02
2022-09-07T02:03:47.391Z,1009.92
2022-09-07T02:04:18.612Z,1009.92
2022-09-07T02:04:40.231Z,1010.23
2022-09-07T02:05:06.286Z,1010.23
2022-09-07T02:05:38.337Z,1010.23
2022-09-07T02:06:12.369Z,1010.33
2022-09-07T02:06:41.008Z,1010.53
2022-09-07T02:06:58.328Z,1010.53
2022-09-07T02:07:30.419Z,1010.53
2022-09-07T02:07:47.448Z,1010.73
2022-09-07T02:08:18.365Z,1010.73
2022-09-07T02:08:40.725Z,1010.84
2022-09-07T02:09:06.326Z,1010.84
2022-09-07T02:09:39.313Z,1010.84
2022-09-07T02:10:10.431Z,1010.94
2022-09-07T02:10:40.158Z,1010.94
2022-09-07T02:10:58.345Z,1010.94
2022-09-07T02:11:30.444Z,1010.94
2022-09-07T02:11:47.440Z,1010.84
2022-09-07T02:12:18.316Z,1010.84
2022-09-07T02:12:40.226Z,1011.04
2022-09-07T02:13:07.037Z,1011.04
2022-09-07T02:13:38.305Z,1011.04
2022-09-07T02:14:10.388Z,1011.04
2022-09-07T02:14:40.295Z,1010.94
2022-09-07T02:14:59.260Z,1010.94
2022-09-07T02:15:30.517Z,1010.94
2022-09-07T02:15:48.167Z,1010.94
2022-09-07T02:16:18.350Z,1010.94
2022-09-07T02:16:40.989Z,1010.84
2022-09-07T02:17:06.355Z,1010.84
2022-09-07T02:17:38.281Z,1010.84
2022-09-07T02:18:11.325Z,1010.84
2022-09-07T02:18:40.300Z,1011.04
2022-09-07T02:18:59.131Z,1011.04
2022-09-07T02:19:30.404Z,1011.04
2022-09-07T02:19:47.618Z,1010.63
2022-09-07T02:20:18.337Z,1010.63
2022-09-07T02:20:45.569Z,1010.84
2022-09-07T02:21:06.524Z,1010.84
2022-09-07T02:21:38.350Z,1010.84
2022-09-07T02:22:10.359Z,1010.84
2022-09-07T02:22:40.336Z,1010.63
2022-09-07T02:22:58.485Z,1010.63
2022-09-07T02:23:30.372Z,1010.63
2022-09-07T02:23:47.436Z,1010.63
2022-09-07T02:24:18.225Z,1010.63
2022-09-07T02:24:42.009Z,1010.53
2022-09-07T02:25:06.485Z,1010.53
2022-09-07T02:25:38.389Z,1010.53
2022-09-07T02:26:10.309Z,1010.53
2022-09-07T02:26:44.290Z,1010.63
2022-09-07T02:27:14.810Z,1010.63
2022-09-07T02:27:41.129Z,1010.33
2022-09-07T02:28:02.433Z,1010.33
2022-09-07T02:28:34.653Z,1010.33
2022-09-07T02:29:06.341Z,1010.43
2022-09-07T02:29:38.378Z,1010.43
2022-09-07T02:30:10.789Z,1010.73
2022-09-07T02:30:40.235Z,1010.53
2022-09-07T02:30:58.526Z,1010.53
2022-09-07T02:31:30.482Z,1010.53
2022-09-07T02:31:48.472Z,1010.63
2022-09-07T02:32:18.309Z,1010.63
2022-09-07T02:32:40.226Z,1010.63
2022-09-07T02:33:06.370Z,1010.63
2022-09-07T02:33:38.481Z,1010.63
2022-09-07T02:34:10.586Z,1010.53
2022-09-07T02:34:40.322Z,1010.53
2022-09-07T02:34:58.357Z,1010.53
2022-09-07T02:35:30.395Z,1010.53
2022-09-07T02:35:47.640Z,1010.43
2022-09-07T02:36:18.426Z,1010.43
2022-09-07T02:36:41.779Z,1010.63
2022-09-07T02:37:06.365Z,1010.63
2022-09-07T02:37:38.307Z,1010.63
2022-09-07T02:38:10.586Z,1010.33
2022-09-07T02:38:40.408Z,1010.12
2022-09-07T02:38:58.406Z,1010.12
2022-09-07T02:39:30.421Z,1010.12
2022-09-07T02:39:47.446Z,1010.12
2022-09-07T02:40:19.335Z,1010.12
2022-09-07T02:40:41.834Z,1010.23
2022-09-07T02:41:06.376Z,1010.23
2022-09-07T02:41:38.254Z,1010.23
2022-09-07T02:42:10.340Z,1009.92
2022-09-07T02:42:40.140Z,1010.12
2022-09-07T02:42:58.371Z,1010.12
2022-09-07T02:43:31.028Z,1010.12
2022-09-07T02:43:48.063Z,1010.02
2022-09-07T02:44:18.315Z,1010.02
2022-09-07T02:44:40.250Z,1009.92
2022-09-07T02:45:06.415Z,1009.92
2022-09-07T02:45:38.306Z,1009.92
2022-09-07T02:46:10.467Z,1009.82
2022-09-07T02:46:40.812Z,1009.82
2022-09-07T02:46:59.237Z,1009.82
2022-09-07T02:47:30.379Z,1009.82
2022-09-07T02:48:02.286Z,1009.82
2022-09-07T02:48:35.058Z,1009.82
2022-09-07T02:49:06.319Z,1009.41
2022-09-07T02:49:38.124Z,1009.41
2022-09-07T02:50:11.185Z,1009.41
2022-09-07T02:50:40.171Z,1009.41
2022-09-07T02:50:58.377Z,1009.41
2022-09-07T02:51:30.400Z,1009.41
2022-09-07T02:51:47.411Z,1009.41
2022-09-07T02:52:18.226Z,1009.41
2022-09-07T02:52:45.331Z,1009.51
2022-09-07T02:53:06.318Z,1009.51
2022-09-07T02:53:39.028Z,1009.51
2022-09-07T02:54:10.380Z,1009.21
2022-09-07T02:54:44.911Z,1009.21
2022-09-07T02:55:14.885Z,1009.21
2022-09-07T02:55:40.197Z,1009.11
2022-09-07T02:56:02.883Z,1009.11
2022-09-07T02:56:34.732Z,1009.11
2022-09-07T02:57:07.091Z,1009.11
2022-09-07T02:57:38.434Z,1009.11
2022-09-07T02:58:10.426Z,1009.11
2022-09-07T02:58:41.019Z,1009.11
2022-09-07T02:58:58.458Z,1009.11
2022-09-07T02:59:30.388Z,1009.11
2022-09-07T02:59:47.984Z,1009.11
2022-09-07T03:00:18.227Z,1009.11
2022-09-07T03:00:40.882Z,1009.11
2022-09-07T03:01:06.435Z,1009.11
2022-09-07T03:01:38.509Z,1009.11
2022-09-07T03:02:10.478Z,1009.04
2022-09-07T03:02:41.103Z,1008.84
2022-09-07T03:02:58.360Z,1008.84
2022-09-07T03:03:30.491Z,1008.84
2022-09-07T03:03:48.074Z,1008.94
2022-09-07T03:04:19.127Z,1008.94
2022-09-07T03:04:40.201Z,1008.74
2022-09-07T03:05:06.240Z,1008.74
2022-09-07T03:05:38.467Z,1008.74
2022-09-07T03:06:11.237Z,1008.84
2022-09-07T03:06:40.445Z,1008.94
2022-09-07T03:06:58.390Z,1008.94
2022-09-07T03:07:30.306Z,1008.94
2022-09-07T03:07:47.570Z,1008.63
2022-09-07T03:08:18.294Z,1008.63
2022-09-07T03:08:40.136Z,1008.74
2022-09-07T03:09:07.151Z,1008.74
2022-09-07T03:09:38.279Z,1008.74
2022-09-07T03:10:10.314Z,1008.43
2022-09-07T03:10:41.987Z,1008.53
2022-09-07T03:10:59.437Z,1008.53
2022-09-07T03:11:30.312Z,1008.53
2022-09-07T03:11:49.451Z,1008.33
2022-09-07T03:12:18.284Z,1008.33
2022-09-07T03:12:41.381Z,1008.53
2022-09-07T03:13:06.709Z,1008.53
2022-09-07T03:13:38.286Z,1008.53
2022-09-07T03:14:10.997Z,1008.53
2022-09-07T03:14:40.318Z,1008.53
2022-09-07T03:14:58.549Z,1008.53
2022-09-07T03:15:31.269Z,1008.53
2022-09-07T03:16:02.353Z,1008.53
2022-09-07T03:16:34.548Z,1008.53
2022-09-07T03:17:06.411Z,1008.33
2022-09-07T03:17:38.828Z,1008.33
2022-09-07T03:18:10.418Z,1008.53
2022-09-07T03:18:40.374Z,1008.33
2022-09-07T03:18:59.188Z,1008.33
2022-09-07T03:19:30.455Z,1008.33
2022-09-07T03:19:47.637Z,1008.23
2022-09-07T03:20:18.149Z,1008.23
2022-09-07T03:20:40.202Z,1008.43
2022-09-07T03:21:06.345Z,1008.43
2022-09-07T03:21:38.401Z,1008.43
2022-09-07T03:22:10.391Z,1008.33
2022-09-07T03:22:41.192Z,1008.33
2022-09-07T03:22:58.834Z,1008.33
2022-09-07T03:23:30.393Z,1008.33
2022-09-07T03:23:51.726Z,1008.23
2022-09-07T03:24:18.831Z,1008.23
2022-09-07T03:24:41.155Z,1008.33
2022-09-07T03:25:06.564Z,1008.33
2022-09-07T03:25:38.238Z,1008.33
2022-09-07T03:26:12.406Z,1008.33
2022-09-07T03:26:40.273Z,1008.23
2022-09-07T03:26:58.508Z,1008.23
2022-09-07T03:27:30.342Z,1008.23
2022-09-07T03:27:49.206Z,1008.33
2022-09-07T03:28:19.082Z,1008.33
2022-09-07T03:28:40.142Z,1008.53
2022-09-07T03:29:06.309Z,1008.53
2022-09-07T03:29:41.408Z,1008.53
2022-09-07T03:30:10.587Z,1008.33
2022-09-07T03:30:42.087Z,1008.23
2022-09-07T03:31:14.831Z,1008.23
2022-09-07T03:31:42.133Z,1008.23
2022-09-07T03:32:03.939Z,1008.23
2022-09-07T03:32:34.543Z,1008.23
2022-09-07T03:33:06.294Z,1008.63
2022-09-07T03:33:38.191Z,1008.63
2022-09-07T03:34:10.283Z,1008.43
2022-09-07T03:34:40.940Z,1008.23
2022-09-07T03:34:58.282Z,1008.23
2022-09-07T03:35:30.468Z,1008.23
2022-09-07T03:35:49.230Z,1008.53
2022-09-07T03:36:18.227Z,1008.53
2022-09-07T03:36:40.172Z,1008.33
2022-09-07T03:37:07.206Z,1008.33
2022-09-07T03:37:38.425Z,1008.33
2022-09-07T03:38:10.349Z,1008.53
2022-09-07T03:38:40.958Z,1008.53
2022-09-07T03:38:58.273Z,1008.53
2022-09-07T03:39:31.254Z,1008.53
2022-09-07T03:39:50.152Z,1008.63
2022-09-07T03:40:18.059Z,1008.63
2022-09-07T03:40:41.174Z,1008.43
2022-09-07T03:41:06.314Z,1008.43
2022-09-07T03:41:38.330Z,1008.43
2022-09-07T03:42:10.372Z,1008.53
2022-09-07T03:42:40.919Z,1008.63
2022-09-07T03:42:58.377Z,1008.63
2022-09-07T03:43:32.407Z,1008.63
2022-09-07T03:44:02.449Z,1008.63
2022-09-07T03:44:35.049Z,1008.63
2022-09-07T03:45:06.437Z,1008.43
2022-09-07T03:45:38.352Z,1008.43
2022-09-07T03:46:10.628Z,1008.74
2022-09-07T03:46:40.265Z,1008.74
2022-09-07T03:46:58.886Z,1008.74
2022-09-07T03:47:30.311Z,1008.74
2022-09-07T03:47:47.312Z,1008.43
2022-09-07T03:48:18.397Z,1008.43
2022-09-07T03:48:41.521Z,1008.63
2022-09-07T03:49:07.105Z,1008.63
2022-09-07T03:49:38.983Z,1008.63
2022-09-07T03:50:11.210Z,1008.63
2022-09-07T03:50:40.307Z,1008.84
2022-09-07T03:50:58.397Z,1008.84
2022-09-07T03:51:30.393Z,1008.84
2022-09-07T03:51:47.411Z,1008.63
2022-09-07T03:52:19.143Z,1008.63
2022-09-07T03:52:41.347Z,1008.74
2022-09-07T03:53:06.383Z,1008.74
2022-09-07T03:53:39.336Z,1008.74
2022-09-07T03:54:10.253Z,1008.74
2022-09-07T03:54:40.800Z,1008.84
2022-09-07T03:54:58.389Z,1008.84
2022-09-07T03:55:30.365Z,1008.84
2022-09-07T03:56:02.193Z,1008.84
2022-09-07T03:56:34.628Z,1008.84
2022-09-07T03:57:06.287Z,1008.74
2022-09-07T03:57:39.774Z,1008.74
2022-09-07T03:58:11.428Z,1008.74
2022-09-07T03:58:40.143Z,1008.74
2022-09-07T03:58:58.284Z,1008.74
2022-09-07T03:59:31.207Z,1008.74
2022-09-07T03:59:48.834Z,1008.63
2022-09-07T04:00:18.455Z,1008.63
2022-09-07T04:00:40.796Z,1008.63
2022-09-07T04:01:06.355Z,1008.63
2022-09-07T04:01:38.236Z,1008.63
2022-09-07T04:02:10.327Z,1009.04
2022-09-07T04:02:40.408Z,1008.74
2022-09-07T04:02:58.349Z,1008.74
2022-09-07T04:03:30.398Z,1008.74
2022-09-07T04:03:47.332Z,1008.84
2022-09-07T04:04:19.245Z,1008.84
2022-09-07T04:04:40.278Z,1008.94
2022-09-07T04:05:06.293Z,1008.94
2022-09-07T04:05:38.279Z,1008.94
2022-09-07T04:06:10.284Z,1009.04
2022-09-07T04:06:40.175Z,1008.84
2022-09-07T04:06:58.237Z,1008.84
2022-09-07T04:07:30.275Z,1008.84
2022-09-07T04:07:48.722Z,1008.94
2022-09-07T04:08:18.247Z,1008.94
2022-09-07T04:08:40.424Z,1008.94
2022-09-07T04:09:08.080Z,1008.94
2022-09-07T04:09:39.096Z,1008.94
2022-09-07T04:10:12.111Z,1008.84
2022-09-07T04:10:40.169Z,1009.04
2022-09-07T04:10:58.220Z,1009.04
2022-09-07T04:11:30.263Z,1009.04
2022-09-07T04:11:47.367Z,1009.11
2022-09-07T04:12:19.190Z,1009.11
2022-09-07T04:12:40.134Z,1009.04
2022-09-07T04:13:06.700Z,1009.04
2022-09-07T04:13:38.205Z,1009.04
2022-09-07T04:14:11.215Z,1008.84
2022-09-07T04:14:40.234Z,1009.04
2022-09-07T04:14:58.181Z,1009.04
2022-09-07T04:15:32.099Z,1009.04
2022-09-07T04:16:02.123Z,1008.94
2022-09-07T04:16:34.369Z,1008.94
2022-09-07T04:17:06.331Z,1009.04
2022-09-07T04:17:41.009Z,1009.04
2022-09-07T04:18:10.303Z,1009.04
2022-09-07T04:18:40.067Z,1009.21
2022-09-07T04:18:58.133Z,1009.21
2022-09-07T04:19:30.497Z,1009.21
2022-09-07T04:19:47.907Z,1009.04
2022-09-07T04:20:18.822Z,1009.04
2022-09-07T04:20:40.262Z,1009.04
2022-09-07T04:21:06.923Z,1009.04
2022-09-07T04:21:38.980Z,1009.04
2022-09-07T04:22:10.517Z,1009.04
2022-09-07T04:22:40.146Z,1009.04
2022-09-07T04:22:59.413Z,1009.04
2022-09-07T04:23:30.262Z,1009.04
2022-09-07T04:23:48.504Z,1009.11
2022-09-07T04:24:18.190Z,1009.11
2022-09-07T04:24:40.185Z,1008.94
2022-09-07T04:25:06.475Z,1008.94
2022-09-07T04:25:39.041Z,1008.94
2022-09-07T04:26:10.212Z,1008.74
2022-09-07T04:26:40.151Z,1008.74
2022-09-07T04:26:59.073Z,1008.74
2022-09-07T04:27:30.273Z,1008.74
2022-09-07T04:27:48.088Z,1009.11
2022-09-07T04:28:19.048Z,1009.11
2022-09-07T04:28:40.504Z,1009.11
2022-09-07T04:29:07.043Z,1009.11
2022-09-07T04:29:39.417Z,1009.11
2022-09-07T04:30:11.420Z,1009.04
2022-09-07T04:30:42.235Z,1008.94
2022-09-07T04:31:15.453Z,1008.94
2022-09-07T04:31:40.258Z,1008.84
2022-09-07T04:32:02.301Z,1008.84
2022-09-07T04:32:34.646Z,1008.84
2022-09-07T04:33:06.272Z,1008.94
2022-09-07T04:33:39.424Z,1008.94
2022-09-07T04:34:10.411Z,1008.94
2022-09-07T04:34:40.368Z,1009.04
2022-09-07T04:34:58.370Z,1009.04
2022-09-07T04:35:31.092Z,1009.04
2022-09-07T04:36:02.245Z,1008.74
2022-09-07T04:36:34.575Z,1008.74
2022-09-07T04:37:07.122Z,1008.84
2022-09-07T04:37:38.212Z,1008.84
2022-09-07T04:38:10.353Z,1008.84
2022-09-07T04:38:40.287Z,1008.94
2022-09-07T04:38:58.262Z,1008.94
2022-09-07T04:39:30.443Z,1008.94
2022-09-07T04:39:47.408Z,1008.94
2022-09-07T04:40:18.308Z,1008.94
2022-09-07T04:40:40.230Z,1008.84
2022-09-07T04:41:06.313Z,1008.84
2022-09-07T04:41:38.206Z,1008.84
2022-09-07T04:42:10.398Z,1008.63
2022-09-07T04:42:40.283Z,1008.84
2022-09-07T04:42:59.568Z,1008.84
2022-09-07T04:43:30.382Z,1008.84
2022-09-07T04:43:48.224Z,1008.84
2022-09-07T04:44:18.155Z,1008.84
2022-09-07T04:44:40.176Z,1008.94
2022-09-07T04:45:06.327Z,1008.94
2022-09-07T04:45:39.073Z,1008.94
2022-09-07T04:46:10.424Z,1009.04
2022-09-07T04:46:42.596Z,1009.04
2022-09-07T04:47:14.610Z,1009.04
2022-09-07T04:47:40.413Z,1008.94
2022-09-07T04:48:02.253Z,1008.94
2022-09-07T04:48:34.476Z,1008.94
2022-09-07T04:49:06.289Z,1009.04
2022-09-07T04:49:38.108Z,1009.04
2022-09-07T04:50:10.371Z,1009.11
2022-09-07T04:50:40.841Z,1009.11
2022-09-07T04:50:58.269Z,1009.11
2022-09-07T04:51:30.195Z,1009.11
2022-09-07T04:51:47.340Z,1009.04
2022-09-07T04:52:18.294Z,1009.04
2022-09-07T04:52:40.314Z,1009.21
2022-09-07T04:53:07.617Z,1009.21
2022-09-07T04:53:38.246Z,1009.21
2022-09-07T04:54:10.328Z,1009.04
2022-09-07T04:54:40.331Z,1009.11
2022-09-07T04:54:58.455Z,1009.11
2022-09-07T04:55:30.709Z,1009.11
2022-09-07T04:55:49.040Z,1009.11
2022-09-07T04:56:18.328Z,1009.11
2022-09-07T04:56:40.370Z,1009.31
2022-09-07T04:57:06.412Z,1009.31
2022-09-07T04:57:38.293Z,1009.31
2022-09-07T04:58:10.350Z,1009.31
2022-09-07T04:58:41.497Z,1009.21
2022-09-07T04:58:58.471Z,1009.21
2022-09-07T04:59:30.542Z,1009.21
2022-09-07T04:59:47.641Z,1009.11
2022-09-07T05:00:18.376Z,1009.11
2022-09-07T05:00:40.379Z,1009.21
2022-09-07T05:01:06.604Z,1009.21
2022-09-07T05:01:38.416Z,1009.21
2022-09-07T05:02:10.419Z,1009.11
2022-09-07T05:02:40.283Z,1009.41
2022-09-07T05:02:58.423Z,1009.41
2022-09-07T05:03:30.374Z,1009.41
2022-09-07T05:03:47.486Z,1009.31
2022-09-07T05:04:19.385Z,1009.31
2022-09-07T05:04:40.395Z,1009.41
2022-09-07T05:05:06.568Z,1009.41
2022-09-07T05:05:38.441Z,1009.41
2022-09-07T05:06:10.357Z,1009.41
2022-09-07T05:06:40.655Z,1009.51
2022-09-07T05:06:58.438Z,1009.51
2022-09-07T05:07:30.992Z,1009.51
2022-09-07T05:07:48.334Z,1009.31
2022-09-07T05:08:18.312Z,1009.31
2022-09-07T05:08:40.401Z,1009.31
2022-09-07T05:09:07.298Z,1009.31
2022-09-07T05:09:38.457Z,1009.31
2022-09-07T05:10:10.459Z,1009.41
2022-09-07T05:10:40.386Z,1009.31
2022-09-07T05:10:58.440Z,1009.31
2022-09-07T05:11:30.540Z,1009.31
2022-09-07T05:11:47.690Z,1009.31
2022-09-07T05:12:19.697Z,1009.31
2022-09-07T05:12:40.413Z,1009.41
2022-09-07T05:13:06.641Z,1009.41
2022-09-07T05:13:38.344Z,1009.41
2022-09-07T05:14:10.550Z,1009.41
2022-09-07T05:14:40.461Z,1009.31
2022-09-07T05:14:58.588Z,1009.31
2022-09-07T05:15:30.367Z,1009.31
2022-09-07T05:15:47.296Z,1009.31
2022-09-07T05:16:18.562Z,1009.31
2022-09-07T05:16:40.585Z,1009.41
2022-09-07T05:17:06.456Z,1009.41
2022-09-07T05:17:40.201Z,1009.41
2022-09-07T05:18:11.312Z,1009.41
2022-09-07T05:18:40.448Z,1009.51
2022-09-07T05:18:58.449Z,1009.51
2022-09-07T05:19:30.458Z,1009.51
2022-09-07T05:19:48.566Z,1009.21
2022-09-07T05:20:20.376Z,1009.21
2022-09-07T05:20:40.586Z,1009.31
2022-09-07T05:21:06.388Z,1009.31
2022-09-07T05:21:38.368Z,1009.31
2022-09-07T05:22:10.384Z,1009.21
2022-09-07T05:22:42.581Z,1009.21
2022-09-07T05:23:14.877Z,1009.21
2022-09-07T05:23:40.876Z,1009.41
2022-09-07T05:24:02.324Z,1009.41
2022-09-07T05:24:36.126Z,1009.41
2022-09-07T05:25:06.431Z,1009.41
2022-09-07T05:25:40.580Z,1009.41
2022-09-07T05:26:11.418Z,1009.11
2022-09-07T05:26:40.412Z,1009.21
2022-09-07T05:26:59.428Z,1009.21
2022-09-07T05:27:30.846Z,1009.21
2022-09-07T05:27:48.577Z,1009.41
2022-09-07T05:28:19.558Z,1009.41
2022-09-07T05:28:40.472Z,1009.21
2022-09-07T05:30:02.342Z,1009.51
2022-09-07T05:31:41.476Z,1009.21
2022-09-07T05:32:02.244Z,1009.21
2022-09-07T05:32:34.692Z,1009.21
2022-09-07T05:33:07.249Z,1009.21
2022-09-07T05:34:46.045Z,1009.31
2022-09-07T05:35:14.911Z,1009.31
2022-09-07T05:35:40.330Z,1009.41